CheckWX is a tool to help pilots better visualize weather data.  It is not intended as a substitute for an official pre-flight weather briefing.

17:59:24 UTC

ENOA TAF
Oseberg A Platform Heliport
Norway
TAF ENOA 061700Z 0618/0718 24020KT 9999 FEW020 SCT050 BECMG 0707/0709 20030KT

Apr-6@
18:00 UTC

Apr-6 @ 18:00 UTC

Apr-7@
07:00 UTC

Apr-7 @ 07:00 UTC

TAF ENOA 061700Z 0618/0718 24020KT 9999 FEW020 SCT050

Expired

Wind
  • 240° at 20 KTS
Cloud Levels
  • Few at 2,000' AGL
  • Scattered at 5,000' AGL

Apr-7@
07:00 UTC

Apr-7 @ 07:00 UTC

Apr-7@
18:00 UTC

Apr-7 @ 18:00 UTC

BECMG 0707/0709 20030KT

Becoming

Becoming Conditions expected by Tue, Apr 7, 2020 @ 09:00 UTC

Wind
  • 200° at 30 KTS
Cloud Levels
  • Few at 2,000' AGL
  • Scattered at 5,000' AGL